East Carver, Massachusetts
Current Conditions -  °F | °C
As of 4:27 PM on Saturday 20 Dec 2014 (Local Time) from KPYM Reporting Station
Light Snow Light Snow  
Wind Chill: 24°   Ceiling: 600
Heat Index: 32°   Visibility: 2.5mi
Dew Point: 32°   Wind: 9mph
Humidity: 100%   Direction: 320°NW
Pressure: 30.25"   Gusts: NA
Location:  41.9272°N, 70.7516°W
Report Text: KPYM 202127Z AUTO 32008KT 2 1/2SM -SN BR BKN006 OVC013 00/00 A3025 RMK AO2 P0001 T00000000
Loading
Personal Weather Stations






























Interactive Weather Map New forecast layout! Learn more

10-Day Weather Forecast

Advertisements
Track Severe Weather on mobile